Terminal Aerodrome Forecast
Issued by NWS Topeka, KS

Home | Current Version | Previous Version | Text Only | Print | Product List | Glossary Off
Versions: 1 2 3 4 5 6 7 8 9 10 11 12 13 14 15 16 17

503
FTUS43 KTOP 191137
TAFTOP
TAF
KTOP 191137Z 1912/2012 14003KT 2SM BR SCT250
      TEMPO 1912/1916 1/2SM FG VV005
     FM191700 16006KT 4SM BR BKN015
     FM191900 17010KT P6SM SCT025
     FM200400 16008KT 5SM BR OVC015
     FM200800 16009KT 4SM BR VCSH OVC009=

USA.gov is the U.S. government's official web portal to all federal, state and local government web resources and services.